Time;durP1;ratioP1;P1;durP2;ratioP2;P2;SDS_P1;SDS_P2;PMS_P1;PMS_P2;Temp;Humidity;BMP_temperature;BMP_pressure;BME280_temperature;BME280_humidity;BME280_pressure;Samples;Min_cycle;Max_cycle;Signal;HPM_P1;HPM_P2
2022/08/18 00:02:06;;;;;;;17.20;15.70;;;18.90;99.90;;;19.55;100.00;97694.19;5181038;28;20284;-75
2022/08/18 00:04:41;;;;;;;18.52;16.83;;;18.90;99.90;;;19.56;100.00;97689.88;5184073;28;20229;-75
2022/08/18 00:07:24;;;;;;;18.17;16.63;;;18.90;99.90;;;19.59;100.00;97676.97;5187767;28;20585;-75
2022/08/18 00:09:58;;;;;;;19.15;17.40;;;18.90;99.90;;;19.58;100.00;97675.22;5185847;28;20241;-75
2022/08/18 00:12:38;;;;;;;18.25;16.52;;;18.90;99.90;;;19.38;100.00;97669.66;5198374;28;20225;-75
2022/08/18 00:15:16;;;;;;;17.90;16.40;;;18.70;99.90;;;19.30;100.00;97656.53;5199884;28;20217;-75
2022/08/18 00:17:51;;;;;;;17.52;15.98;;;18.60;99.90;;;19.26;100.00;97653.88;5185194;28;20206;-75
2022/08/18 00:20:25;;;;;;;18.58;16.98;;;18.60;99.90;;;19.29;100.00;97649.63;5185746;28;20198;-75
2022/08/18 00:22:59;;;;;;;17.45;15.85;;;18.60;99.90;;;19.31;100.00;97647.91;5192407;28;20299;-75
2022/08/18 00:25:32;;;;;;;19.00;17.33;;;18.70;99.90;;;19.34;100.00;97642.81;5189119;28;20321;-75
2022/08/18 00:28:05;;;;;;;18.92;17.27;;;18.70;99.90;;;19.38;100.00;97642.88;5191961;28;20206;-75
2022/08/18 00:30:40;;;;;;;17.52;16.13;;;18.70;99.90;;;19.32;100.00;97638.44;5181404;28;20268;-74
2022/08/18 00:33:14;;;;;;;19.35;17.55;;;18.60;99.90;;;19.26;100.00;97639.19;5184956;28;20581;-74
2022/08/18 00:35:47;;;;;;;19.90;18.13;;;18.60;99.90;;;19.30;100.00;97629.75;5188941;28;20311;-75
2022/08/18 00:38:20;;;;;;;18.67;17.05;;;18.60;99.90;;;19.30;100.00;97635.81;5188318;28;20316;-75
2022/08/18 00:40:57;;;;;;;18.98;17.27;;;18.60;99.90;;;19.32;100.00;97626.34;5178176;28;20222;-75
2022/08/18 00:43:44;;;;;;;21.52;19.42;;;18.60;99.90;;;19.33;100.00;97629.81;5188058;28;20226;-75
2022/08/18 00:46:22;;;;;;;21.38;19.52;;;18.60;99.90;;;19.32;100.00;97631.53;5179930;28;20673;-74
2022/08/18 00:48:57;;;;;;;22.45;20.45;;;18.60;99.90;;;19.34;100.00;97626.38;5181464;28;20230;-74
2022/08/18 00:51:38;;;;;;;23.85;21.45;;;18.70;99.90;;;19.36;100.00;97638.50;5184731;28;20253;-74
2022/08/18 00:54:16;;;;;;;22.50;20.25;;;18.70;99.90;;;19.36;100.00;97625.56;5193155;28;20795;-75
2022/08/18 00:56:53;;;;;;;20.65;18.85;;;18.60;99.90;;;19.33;100.00;97628.09;5186156;28;20957;-75
2022/08/18 00:59:33;;;;;;;20.83;19.13;;;18.60;99.90;;;19.31;100.00;97624.59;5182604;28;20238;-74
2022/08/18 01:02:09;;;;;;;21.20;19.33;;;18.60;99.90;;;19.34;100.00;97621.19;5186147;28;20245;-75
2022/08/18 01:04:51;;;;;;;20.25;18.52;;;18.60;99.90;;;19.35;100.00;97620.34;5187968;28;20751;-75
2022/08/18 01:07:29;;;;;;;21.88;19.92;;;18.60;99.90;;;19.32;100.00;97623.78;5179368;28;20284;-75
2022/08/18 01:10:04;;;;;;;21.23;19.33;;;18.60;99.90;;;19.36;100.00;97624.69;5188672;28;20940;-75
2022/08/18 01:12:37;;;;;;;21.25;19.42;;;18.60;99.90;;;19.36;100.00;97604.81;5194384;28;20289;-75
2022/08/18 01:15:21;;;;;;;21.50;19.58;;;18.60;99.90;;;19.37;100.00;97616.06;5198360;28;20684;-74
2022/08/18 01:24:02;;;;;;;21.40;19.48;;;18.60;99.90;;;19.35;100.00;97620.34;5188742;28;20317;-74
2022/08/18 01:26:36;;;;;;;21.23;19.35;;;18.60;99.90;;;19.35;100.00;97617.78;5190093;28;20321;-75
2022/08/18 01:29:19;;;;;;;22.08;20.27;;;18.60;99.90;;;19.31;100.00;97616.81;5185924;28;20306;-75
2022/08/18 01:31:54;;;;;;;22.45;20.55;;;18.60;99.90;;;19.32;100.00;97615.13;5181241;28;20313;-75
2022/08/18 01:34:28;;;;;;;21.88;19.98;;;18.60;99.90;;;19.33;100.00;97598.72;5195081;28;20221;-75
2022/08/18 01:37:03;;;;;;;23.63;21.42;;;18.60;99.90;;;19.33;100.00;97586.63;5181792;28;20249;-75
2022/08/18 01:39:38;;;;;;;21.40;19.42;;;18.60;99.90;;;19.35;100.00;97577.16;5182536;28;20214;-75
2022/08/18 01:42:31;;;;;;;21.10;19.30;;;18.60;99.90;;;19.36;100.00;97563.34;5188177;28;20202;-75
2022/08/18 01:45:07;;;;;;;25.33;22.98;;;18.60;99.90;;;19.39;100.00;97548.69;5195213;28;20751;-75
2022/08/18 01:47:41;;;;;;;23.95;21.88;;;18.60;99.90;;;19.40;100.00;97540.06;5187056;28;20644;-74
2022/08/18 01:50:30;;;;;;;23.23;21.15;;;18.60;99.90;;;19.31;100.00;97533.88;5185874;28;20333;-75
2022/08/18 01:53:04;;;;;;;23.45;21.40;;;18.50;99.90;;;19.25;100.00;97523.41;5185750;28;20302;-75
2022/08/18 01:55:44;;;;;;;22.13;20.15;;;18.40;99.90;;;19.22;100.00;97513.00;5186894;28;20299;-75
2022/08/18 01:58:17;;;;;;;22.98;20.77;;;18.50;99.90;;;19.24;100.00;97507.84;5176976;28;20272;-75
2022/08/18 02:00:50;;;;;;;22.25;20.25;;;18.50;99.90;;;19.23;100.00;97512.16;5173299;28;20300;-75
2022/08/18 02:03:25;;;;;;;20.90;19.00;;;18.50;99.90;;;19.15;100.00;97505.97;5188768;28;20578;-75
2022/08/18 02:06:02;;;;;;;23.10;20.80;;;18.30;99.90;;;19.16;100.00;97499.06;5191951;28;20226;-75
2022/08/18 02:08:35;;;;;;;22.17;20.13;;;18.30;99.90;;;19.14;100.00;97496.44;5192025;28;20609;-74
2022/08/18 02:11:10;;;;;;;20.73;18.92;;;18.30;99.90;;;19.13;100.00;97511.13;5187603;28;20288;-75
2022/08/18 02:13:43;;;;;;;21.65;19.65;;;18.40;99.90;;;19.16;100.00;97506.84;5189965;28;20256;-75
2022/08/18 02:16:17;;;;;;;21.90;20.10;;;18.40;99.90;;;19.18;100.00;97508.63;5191304;28;20225;-75
2022/08/18 02:18:50;;;;;;;22.00;20.08;;;18.30;99.90;;;19.17;100.00;97501.66;5178900;28;21359;-75
2022/08/18 02:21:23;;;;;;;22.58;20.52;;;18.40;99.90;;;19.21;100.00;97507.81;5192229;28;20241;-75
2022/08/18 02:23:56;;;;;;;23.40;21.40;;;18.40;99.90;;;19.23;100.00;97509.56;5183835;28;20321;-75
2022/08/18 02:26:31;;;;;;;23.17;21.08;;;18.50;99.90;;;19.17;100.00;97504.25;5187608;28;20701;-75
2022/08/18 02:29:04;;;;;;;22.55;20.60;;;18.40;99.90;;;19.20;100.00;97509.53;5185449;28;20229;-75
2022/08/18 02:31:37;;;;;;;23.98;21.80;;;18.40;99.90;;;19.20;100.00;97509.53;5187132;28;20272;-75
2022/08/18 02:34:10;;;;;;;22.02;19.92;;;18.40;99.90;;;19.21;100.00;97500.91;5183348;28;20222;-75
2022/08/18 02:36:43;;;;;;;21.38;19.48;;;18.40;99.90;;;19.23;100.00;97498.31;5175655;28;20276;-75
2022/08/18 02:39:17;;;;;;;22.65;20.67;;;18.50;99.90;;;19.25;100.00;97502.69;5185871;28;20282;-74
2022/08/18 02:41:52;;;;;;;23.67;21.50;;;18.50;99.90;;;19.25;100.00;97510.44;5188479;28;20237;-75
2022/08/18 02:44:25;;;;;;;23.17;21.17;;;18.50;99.90;;;19.24;100.00;97516.50;5182171;28;20267;-75
2022/08/18 02:46:59;;;;;;;23.83;21.42;;;18.50;99.90;;;19.28;100.00;97513.09;5186636;28;20269;-75
2022/08/18 02:49:32;;;;;;;23.92;21.73;;;18.50;99.90;;;19.25;100.00;97510.44;5186066;28;20201;-75
2022/08/18 02:52:05;;;;;;;24.48;22.15;;;18.50;99.90;;;19.28;100.00;97507.91;5192431;28;20309;-74
2022/08/18 02:54:39;;;;;;;24.20;22.00;;;18.60;99.90;;;19.27;100.00;97513.09;5187755;28;20298;-75
2022/08/18 02:57:13;;;;;;;23.48;21.38;;;18.60;99.90;;;19.29;100.00;97524.34;5185320;28;20230;-74
2022/08/18 02:59:46;;;;;;;24.55;22.35;;;18.60;99.90;;;19.29;100.00;97538.19;5183275;28;20233;-74
2022/08/18 03:02:21;;;;;;;23.42;21.48;;;18.60;99.90;;;19.26;100.00;97534.69;5180339;28;20580;-74
2022/08/18 03:04:54;;;;;;;24.00;21.88;;;18.60;99.90;;;19.26;100.00;97535.53;5183724;28;20319;-74
2022/08/18 03:07:27;;;;;;;22.48;20.58;;;18.60;99.90;;;19.27;100.00;97534.69;5179668;28;20201;-74
2022/08/18 03:10:00;;;;;;;23.88;21.77;;;18.60;99.90;;;19.23;100.00;97532.91;5181506;28;20210;-74
2022/08/18 03:12:55;;;;;;;23.27;21.27;;;18.60;99.90;;;19.23;100.00;97514.75;5179448;28;20214;-75
2022/08/18 03:15:28;;;;;;;23.38;21.38;;;18.60;99.90;;;19.22;100.00;97519.91;5180644;28;20232;-74
2022/08/18 03:18:01;;;;;;;22.42;20.52;;;18.60;99.90;;;19.25;100.00;97518.22;5188946;28;20198;-75
2022/08/18 03:20:36;;;;;;;23.90;21.80;;;18.60;99.90;;;19.31;100.00;97517.47;5183682;28;20241;-75
2022/08/18 03:23:09;;;;;;;24.27;22.08;;;18.60;99.90;;;19.30;100.00;97516.59;5184445;28;20253;-75
2022/08/18 03:25:45;;;;;;;23.15;21.25;;;18.60;99.90;;;19.26;100.00;97509.63;5184154;28;20230;-75
2022/08/18 03:28:21;;;;;;;24.02;21.83;;;18.60;99.90;;;19.23;100.00;97504.41;5185285;28;20602;-75
2022/08/18 03:30:55;;;;;;;24.35;22.13;;;18.50;99.90;;;19.20;100.00;97499.16;5186153;28;20263;-75
2022/08/18 03:33:28;;;;;;;24.40;22.20;;;18.50;99.90;;;19.22;100.00;97494.84;5182982;28;20804;-75
2022/08/18 03:36:05;;;;;;;23.98;21.95;;;18.50;99.90;;;19.24;100.00;97497.47;5178657;28;20681;-75
2022/08/18 03:38:39;;;;;;;23.90;21.70;;;18.50;99.90;;;19.25;100.00;97496.63;5191535;28;20999;-74
2022/08/18 03:41:15;;;;;;;24.73;22.55;;;18.50;99.90;;;19.24;100.00;97490.56;5184215;28;20265;-75
2022/08/18 03:44:10;;;;;;;22.30;20.42;;;18.50;99.90;;;19.27;100.00;97490.63;5183850;28;20227;-75
2022/08/18 03:46:44;;;;;;;21.92;20.02;;;18.50;99.90;;;19.27;100.00;97492.34;5185841;28;20296;-75
2022/08/18 03:49:19;;;;;;;23.40;21.20;;;18.50;99.90;;;19.23;100.00;97482.75;5187976;28;20229;-75
2022/08/18 03:51:52;;;;;;;22.90;21.02;;;18.40;99.90;;;19.21;100.00;97480.16;5180511;28;20579;-75
2022/08/18 03:54:25;;;;;;;23.27;21.27;;;18.40;99.90;;;19.20;100.00;97478.44;5192786;28;20749;-74
2022/08/18 03:56:59;;;;;;;23.48;21.38;;;18.40;99.90;;;19.19;100.00;97480.97;5184110;28;20218;-74
2022/08/18 03:59:33;;;;;;;22.38;20.38;;;18.40;99.90;;;19.18;100.00;97482.69;5182604;28;20733;-74
2022/08/18 04:02:07;;;;;;;22.20;20.10;;;18.40;99.90;;;19.14;100.00;97483.47;5184873;28;20649;-75
2022/08/18 04:04:40;;;;;;;20.80;19.00;;;18.30;99.90;;;19.16;100.00;97486.97;5193824;28;20218;-74
2022/08/18 04:07:16;;;;;;;21.88;19.98;;;18.30;99.90;;;19.23;100.00;97486.25;5190364;28;20202;-75
2022/08/18 04:09:49;;;;;;;22.05;20.17;;;18.30;99.90;;;19.17;100.00;97485.25;5191582;28;20229;-75
2022/08/18 04:12:22;;;;;;;22.48;20.38;;;18.30;99.90;;;19.15;100.00;97492.16;5185406;28;20273;-75
2022/08/18 04:14:57;;;;;;;22.92;20.92;;;18.30;99.90;;;19.12;100.00;97492.97;5185518;28;20716;-74
2022/08/18 04:17:30;;;;;;;22.15;20.10;;;18.30;99.90;;;19.13;100.00;97492.09;5195010;28;20232;-75
2022/08/18 04:20:05;;;;;;;23.42;21.33;;;18.40;99.90;;;19.12;100.00;97504.19;5195008;28;20601;-76
2022/08/18 04:22:38;;;;;;;23.00;20.92;;;18.30;99.90;;;19.15;100.00;97499.94;5193039;28;20233;-75
2022/08/18 04:25:12;;;;;;;23.05;21.05;;;18.30;99.90;;;19.21;100.00;97503.47;5186082;28;20245;-76
2022/08/18 04:27:45;;;;;;;23.17;21.15;;;18.40;99.90;;;19.19;100.00;97507.75;5188882;28;20607;-76
2022/08/18 04:30:21;;;;;;;24.08;21.80;;;18.40;99.90;;;19.22;100.00;97515.59;5196613;28;20225;-79
2022/08/18 04:32:54;;;;;;;23.48;21.40;;;18.40;99.90;;;19.20;100.00;97519.88;5185523;28;20312;-76
2022/08/18 04:35:28;;;;;;;22.75;20.75;;;18.40;99.90;;;19.25;100.00;97528.59;5180036;28;20222;-76
2022/08/18 04:38:01;;;;;;;23.00;21.00;;;18.40;99.90;;;19.15;100.00;97520.66;5184953;28;20237;-76
2022/08/18 04:40:34;;;;;;;24.25;22.05;;;18.30;99.90;;;19.17;100.00;97524.13;5181093;28;20717;-76
2022/08/18 04:43:10;;;;;;;24.60;22.30;;;18.30;99.90;;;19.22;100.00;97528.53;5186551;28;20229;-76
2022/08/18 04:45:45;;;;;;;25.08;22.80;;;18.40;99.90;;;19.27;100.00;97526.03;5182161;28;20693;-76
2022/08/18 04:48:19;;;;;;;23.98;21.75;;;18.50;99.90;;;19.34;100.00;97530.47;5185217;28;20557;-76
2022/08/18 04:50:54;;;;;;;23.10;21.02;;;18.50;99.90;;;19.33;100.00;97536.50;5187486;28;20206;-76
2022/08/18 04:53:44;;;;;;;23.45;21.38;;;18.50;99.90;;;19.35;100.00;97534.81;5183145;28;20305;-76
2022/08/18 04:56:25;;;;;;;24.13;21.92;;;18.50;99.90;;;19.33;100.00;97534.78;5178853;28;20234;-76
2022/08/18 04:59:01;;;;;;;21.25;19.30;;;18.50;99.90;;;19.38;100.00;97534.00;5180810;28;20527;-76
2022/08/18 05:01:39;;;;;;;24.58;22.27;;;18.50;99.90;;;19.42;100.00;97533.19;5186560;28;20639;-75
2022/08/18 05:04:13;;;;;;;24.13;21.92;;;18.60;99.90;;;19.36;100.00;97536.56;5179402;28;20708;-76
2022/08/18 05:06:46;;;;;;;25.30;22.90;;;18.60;99.90;;;19.46;100.00;97538.47;5185797;28;20202;-75
2022/08/18 05:09:20;;;;;;;23.83;21.58;;;18.60;99.90;;;19.54;100.00;97544.66;5184725;28;20252;-76
2022/08/18 05:11:55;;;;;;;22.08;20.08;;;18.60;99.90;;;19.61;100.00;97540.44;5187399;28;20206;-75
2022/08/18 05:14:28;;;;;;;24.45;22.25;;;18.70;99.90;;;19.74;100.00;97545.03;5189077;28;20712;-76
2022/08/18 05:17:04;;;;;;;22.42;20.42;;;18.80;99.90;;;19.81;100.00;97553.75;5183910;28;20238;-76
2022/08/18 05:19:37;;;;;;;22.17;20.17;;;18.80;99.90;;;19.96;100.00;97545.34;5190203;28;20237;-75
2022/08/18 05:22:18;;;;;;;22.05;20.15;;;19.00;99.90;;;19.92;100.00;97538.38;5193378;28;20559;-76
2022/08/18 05:25:00;;;;;;;19.45;17.63;;;18.80;99.90;;;19.89;100.00;97534.00;5187228;28;20230;-76
2022/08/18 05:27:35;;;;;;;19.92;18.30;;;18.90;99.90;;;19.89;100.00;97534.00;5184363;28;20678;-76
2022/08/18 05:30:10;;;;;;;18.83;17.27;;;19.00;99.90;;;20.09;100.00;97530.81;5183889;28;20224;-75
2022/08/18 05:32:46;;;;;;;16.95;15.60;;;19.10;99.90;;;20.38;100.00;97533.81;5187343;28;20218;-76
2022/08/18 05:35:36;;;;;;;18.80;17.20;;;19.20;99.90;;;20.35;100.00;97528.59;5186669;28;20689;-76
2022/08/18 05:38:37;;;;;;;18.00;16.52;;;19.40;99.90;;;20.74;100.00;97537.75;5185270;28;20230;-76
2022/08/18 05:41:15;;;;;;;17.38;16.05;;;19.70;99.90;;;20.73;100.00;97530.81;5179757;28;20202;-76
2022/08/18 05:43:48;;;;;;;16.38;15.02;;;19.80;99.90;;;20.81;100.00;97529.19;5177828;28;20660;-75
2022/08/18 05:46:38;;;;;;;16.67;15.38;;;19.80;99.90;;;20.88;100.00;97530.97;5183151;28;20203;-76
2022/08/18 05:49:14;;;;;;;15.63;14.43;;;19.90;99.90;;;20.99;100.00;97528.50;5184150;28;20602;-76
2022/08/18 05:51:50;;;;;;;15.27;13.95;;;20.00;99.90;;;21.03;100.00;97525.06;5184244;28;20348;-76
2022/08/18 05:57:20;;;;;;;16.23;14.93;;;20.00;99.90;;;21.06;100.00;97528.59;5181201;28;20202;-76
2022/08/18 05:59:54;;;;;;;15.30;14.10;;;19.90;99.90;;;20.97;100.00;97541.47;5179265;28;20238;-75
2022/08/18 06:02:34;;;;;;;15.50;14.20;;;19.90;99.90;;;20.83;100.00;97553.44;5187324;28;20198;-75
2022/08/18 06:05:13;;;;;;;16.83;15.52;;;19.80;99.90;;;20.83;100.00;97564.72;5184917;28;20264;-76
2022/08/18 06:07:53;;;;;;;16.17;14.80;;;19.80;99.90;;;20.70;97.44;97573.22;5182169;28;20580;-76
2022/08/18 06:10:27;;;;;;;15.85;14.50;;;19.70;99.90;;;20.68;100.00;97575.78;5185385;28;20265;-75
2022/08/18 06:13:02;;;;;;;16.23;14.93;;;19.70;99.90;;;20.57;98.63;97569.56;5181699;28;20231;-76
2022/08/18 06:15:51;;;;;;;14.43;13.30;;;19.70;99.90;;;20.70;100.00;97568.88;5194939;28;20249;-75
2022/08/18 06:18:40;;;;;;;13.60;12.50;;;19.80;99.90;;;20.80;100.00;97571.59;5184613;28;20229;-76
2022/08/18 06:21:40;;;;;;;13.35;12.35;;;19.90;99.90;;;20.70;97.36;97581.88;5180323;28;20246;-75
2022/08/18 06:24:24;;;;;;;13.52;12.40;;;19.80;99.90;;;20.85;100.00;97573.38;5172737;28;20280;-76
2022/08/18 06:27:08;;;;;;;15.20;14.00;;;19.80;99.90;;;20.86;98.05;97566.47;5183627;28;20611;-76
2022/08/18 06:30:03;;;;;;;14.95;13.55;;;19.90;99.90;;;20.92;96.05;97553.56;5178630;28;20210;-75
2022/08/18 06:32:56;;;;;;;15.77;14.45;;;19.90;99.90;;;21.18;94.91;97551.25;5182233;28;20296;-75
2022/08/18 06:35:37;;;;;;;14.55;13.35;;;20.10;99.90;;;21.49;94.45;97547.25;5183245;28;20254;-75
2022/08/18 06:38:40;;;;;;;14.30;13.10;;;20.30;99.90;;;21.77;88.93;97556.13;5181853;28;20233;-75
2022/08/18 06:41:22;;;;;;;13.93;12.82;;;20.60;99.90;;;21.92;90.30;97563.19;5176791;28;20203;-75
2022/08/18 06:44:23;;;;;;;13.25;12.25;;;20.80;99.90;;;22.10;89.80;97572.00;5178380;28;20226;-75
2022/08/18 06:47:05;;;;;;;13.27;12.27;;;20.90;99.90;;;22.13;88.16;97577.22;5180668;28;20229;-76
2022/08/18 06:49:45;;;;;;;13.18;12.07;;;20.90;99.90;;;22.03;88.74;97579.75;5183583;28;20233;-75
2022/08/18 06:52:28;;;;;;;13.90;12.80;;;20.80;99.90;;;21.79;88.30;97579.56;5178034;28;20285;-75
2022/08/18 06:55:08;;;;;;;13.93;12.73;;;20.60;99.90;;;21.59;90.41;97577.66;5182908;28;20260;-75
2022/08/18 06:57:56;;;;;;;14.82;13.63;;;20.40;99.90;;;21.59;92.55;97580.25;5186931;28;20229;-75
2022/08/18 07:00:33;;;;;;;13.77;12.57;;;20.50;99.90;;;21.57;92.80;97571.56;5187371;28;20226;-75
2022/08/18 07:03:13;;;;;;;14.13;12.93;;;20.40;99.90;;;21.54;90.97;97574.13;5181033;28;20205;-76
2022/08/18 07:06:01;;;;;;;11.85;10.95;;;20.40;99.90;;;21.53;95.09;97572.41;5183487;28;20202;-75
2022/08/18 07:08:39;;;;;;;14.48;13.32;;;20.40;99.90;;;21.52;94.10;97562.88;5181416;28;20209;-76
2022/08/18 07:11:20;;;;;;;15.10;13.82;;;20.40;99.90;;;21.45;93.00;97555.84;5179015;28;20239;-75
2022/08/18 07:13:55;;;;;;;13.77;12.60;;;20.40;99.90;;;21.57;94.86;97555.94;5180184;28;20250;-75
2022/08/18 07:16:48;;;;;;;13.27;12.18;;;20.50;99.90;;;21.77;96.82;97552.66;5180261;28;20288;-75
2022/08/18 07:19:37;;;;;;;13.05;11.98;;;20.70;99.90;;;21.70;88.83;97550.88;5179871;28;20203;-75
2022/08/18 07:22:14;;;;;;;13.52;12.52;;;20.70;99.90;;;21.71;88.09;97547.41;5179596;28;20256;-75
2022/08/18 07:24:53;;;;;;;12.88;11.88;;;20.70;99.90;;;21.87;90.15;97544.06;5179677;28;20631;-75
2022/08/18 07:27:47;;;;;;;13.27;12.13;;;20.70;99.90;;;22.02;86.66;97549.38;5174157;28;20252;-76
2022/08/18 07:30:34;;;;;;;12.30;11.20;;;20.90;99.90;;;22.02;85.50;97551.97;5173033;28;20264;-75
2022/08/18 07:33:20;;;;;;;13.88;12.55;;;20.90;99.90;;;22.13;86.04;97564.19;5179215;28;20589;-75
2022/08/18 07:35:58;;;;;;;13.77;12.68;;;21.00;99.90;;;22.20;87.26;97558.19;5178456;28;20238;-75
2022/08/18 07:38:38;;;;;;;14.18;12.98;;;21.10;99.90;;;22.19;86.48;97551.25;5190313;28;20202;-75
2022/08/18 07:41:20;;;;;;;12.85;11.85;;;21.10;99.90;;;22.28;87.24;97548.69;5180010;28;20195;-76
2022/08/18 07:44:05;;;;;;;14.35;13.25;;;21.20;99.90;;;22.22;87.01;97546.06;5188422;28;20257;-75
2022/08/18 07:46:58;;;;;;;13.80;12.60;;;21.10;99.90;;;22.18;88.05;97558.19;5182108;28;20257;-75
2022/08/18 07:49:35;;;;;;;12.27;11.38;;;21.00;99.90;;;22.24;90.19;97562.56;5179375;28;20792;-75
2022/08/18 07:52:20;;;;;;;12.98;11.88;;;21.00;99.90;;;22.11;84.93;97569.38;5181478;28;20202;-75
2022/08/18 07:55:26;;;;;;;12.48;11.48;;;21.00;99.90;;;22.00;87.02;97571.91;5185211;28;20221;-75
2022/08/18 07:58:15;;;;;;;12.00;11.15;;;20.90;99.90;;;22.26;90.11;97581.66;5183583;28;20221;-75
2022/08/18 08:00:57;;;;;;;12.23;11.13;;;21.10;99.90;;;22.33;89.18;97588.66;5180222;28;20674;-75
2022/08/18 08:03:44;;;;;;;12.10;11.20;;;21.20;99.90;;;22.46;86.35;97594.81;5180253;28;20229;-75
2022/08/18 08:06:24;;;;;;;12.07;11.18;;;21.30;99.90;;;22.34;86.29;97608.63;5181642;28;20756;-75
2022/08/18 08:09:06;;;;;;;12.02;11.10;;;21.30;99.90;;;22.31;86.76;97616.41;5181630;28;20678;-76
2022/08/18 08:11:52;;;;;;;11.45;10.63;;;21.20;99.90;;;22.32;87.39;97618.19;5179781;28;20234;-75
2022/08/18 08:14:41;;;;;;;11.38;10.48;;;21.20;99.90;;;22.13;86.95;97611.94;5180910;28;20249;-75
2022/08/18 08:17:43;;;;;;;12.80;11.80;;;21.00;99.90;;;21.90;87.20;97621.28;5182774;28;20727;-75
2022/08/18 08:20:26;;;;;;;13.40;12.32;;;20.90;99.90;;;21.79;88.92;97613.38;5182422;28;20226;-75
2022/08/18 08:23:21;;;;;;;13.20;12.10;;;20.70;99.90;;;21.68;90.06;97599.41;5185905;28;20217;-76
2022/08/18 08:26:17;;;;;;;12.73;11.63;;;20.60;99.90;;;21.72;90.91;97598.56;5180507;28;20227;-75
2022/08/18 08:29:07;;;;;;;13.27;12.25;;;20.60;99.90;;;21.81;91.65;97596.06;5186661;28;20292;-75
2022/08/18 08:31:50;;;;;;;12.75;11.70;;;20.70;99.90;;;21.79;91.41;97597.78;5180490;28;20261;-75
2022/08/18 08:34:33;;;;;;;12.85;11.65;;;20.80;99.90;;;21.84;90.93;97590.88;5184141;28;20751;-74
2022/08/18 08:37:15;;;;;;;12.65;11.68;;;20.80;99.90;;;21.77;91.31;97586.47;5181710;28;20273;-75
2022/08/18 08:39:58;;;;;;;13.30;12.20;;;20.80;99.90;;;21.80;92.24;97578.69;5181650;28;20232;-75
2022/08/18 08:42:40;;;;;;;12.98;11.98;;;20.80;99.90;;;21.71;90.03;97574.28;5185564;28;20589;-74
2022/08/18 08:45:21;;;;;;;12.80;11.90;;;20.70;99.90;;;21.70;90.92;97572.56;5178639;28;20614;-74
2022/08/18 08:48:05;;;;;;;14.00;12.85;;;20.70;99.90;;;21.71;92.13;97565.63;5180036;28;20223;-76
2022/08/18 08:50:49;;;;;;;14.07;12.88;;;20.70;99.90;;;21.70;90.79;97559.53;5185390;28;20210;-75
2022/08/18 08:53:27;;;;;;;13.82;12.65;;;20.70;99.90;;;21.80;91.67;97558.78;5181477;28;20206;-75
2022/08/18 08:56:08;;;;;;;13.80;12.60;;;20.80;99.90;;;21.85;92.44;97550.97;5184000;28;20262;-75
2022/08/18 08:58:48;;;;;;;13.30;12.30;;;20.90;99.90;;;21.90;91.01;97557.09;5189436;28;20206;-75
2022/08/18 09:01:30;;;;;;;11.35;10.45;;;21.00;99.90;;;22.11;93.03;97558.09;5185632;28;20292;-75
2022/08/18 09:04:18;;;;;;;12.68;11.68;;;21.10;99.90;;;22.28;91.83;97551.28;5183005;28;21007;-75
2022/08/18 09:07:13;;;;;;;12.57;11.60;;;21.30;99.90;;;22.46;88.95;97556.63;5185115;28;20740;-75
2022/08/18 09:10:23;;;;;;;12.88;11.88;;;21.40;99.90;;;22.62;84.38;97548.88;5180228;28;20696;-75
2022/08/18 09:13:21;;;;;;;12.80;11.80;;;21.60;99.90;;;22.96;82.58;97541.22;5184875;28;20223;-75
2022/08/18 09:16:18;;;;;;;12.38;11.48;;;21.80;99.90;;;22.99;81.57;97528.19;5184766;28;20226;-76
2022/08/18 09:19:14;;;;;;;10.93;10.07;;;21.80;99.90;;;23.28;82.18;97539.53;5181657;28;20234;-76
2022/08/18 09:21:57;;;;;;;12.13;11.07;;;22.10;99.90;;;23.12;81.03;97548.19;5179891;28;20280;-76
2022/08/18 09:24:39;;;;;;;10.85;10.00;;;22.10;99.90;;;23.39;81.06;97532.59;5182150;28;20223;-75
2022/08/18 09:27:23;;;;;;;10.75;9.85;;;22.40;99.90;;;23.45;80.32;97508.25;5183116;28;20253;-76
2022/08/18 09:30:00;;;;;;;10.82;9.93;;;22.40;99.90;;;23.53;78.97;97511.72;5187470;28;20658;-75
2022/08/18 09:32:56;;;;;;;11.13;10.23;;;22.50;99.90;;;23.67;78.37;97531.75;5179962;28;20629;-75
2022/08/18 09:36:06;;;;;;;10.63;9.73;;;22.60;99.90;;;23.88;77.76;97546.56;5185405;28;20729;-75
2022/08/18 09:41:50;;;;;;;10.73;9.93;;;23.20;99.90;;;24.67;72.67;97551.63;5181820;28;20285;-75
2022/08/18 09:45:00;;;;;;;11.13;10.23;;;23.60;99.90;;;24.93;69.49;97546.28;5188472;28;20744;-75
2022/08/18 09:48:01;;;;;;;11.20;10.30;;;24.00;99.90;;;24.65;70.82;97547.28;5177197;28;20229;-75
2022/08/18 09:50:54;;;;;;;11.27;10.48;;;23.70;99.90;;;24.44;70.81;97543.00;5178332;28;20976;-75
2022/08/18 09:54:07;;;;;;;11.15;10.35;;;23.40;99.90;;;24.12;71.92;97546.50;5179916;28;20288;-75
2022/08/18 09:57:18;;;;;;;11.25;10.18;;;23.10;99.90;;;24.06;72.98;97536.06;5188366;28;20230;-74
2022/08/18 10:00:30;;;;;;;10.55;9.85;;;22.90;99.90;;;24.07;73.13;97550.03;5187282;28;20217;-75
2022/08/18 10:03:29;;;;;;;11.23;10.40;;;23.00;99.90;;;23.99;74.28;97543.06;5181572;28;20660;-76
2022/08/18 10:06:21;;;;;;;11.73;10.82;;;22.80;99.90;;;24.05;73.45;97553.50;5164502;28;20199;-75
2022/08/18 10:09:31;;;;;;;11.00;10.20;;;22.80;99.90;;;24.27;73.16;97535.19;5179931;28;20568;-76
2022/08/18 10:12:27;;;;;;;11.88;11.00;;;23.00;99.90;;;24.20;72.94;97539.53;5187808;28;20209;-76
2022/08/18 10:15:32;;;;;;;11.30;10.30;;;23.10;99.90;;;24.31;72.54;97541.25;5181078;28;20261;-75
2022/08/18 10:18:52;;;;;;;11.18;10.27;;;23.20;99.90;;;24.49;71.92;97536.91;5174890;28;20238;-75
2022/08/18 10:21:28;;;;;;;10.88;10.18;;;23.40;99.90;;;24.75;71.66;97512.38;5181734;28;20575;-76
2022/08/18 10:24:18;;;;;;;11.20;10.40;;;23.50;99.90;;;25.22;68.96;97508.66;5181737;28;20413;-76
2022/08/18 10:27:34;;;;;;;11.80;10.90;;;24.30;99.90;;;25.04;69.95;97513.94;5181906;28;20194;-75
2022/08/18 10:31:00;;;;;;;11.88;11.07;;;24.20;99.90;;;25.16;71.67;97509.56;5185934;28;20657;-75
2022/08/18 10:34:01;;;;;;;11.75;10.95;;;24.30;99.90;;;25.72;66.63;97503.88;5178992;28;20222;-75
2022/08/18 10:36:52;;;;;;;12.00;11.00;;;25.00;99.90;;;25.83;67.34;97481.13;5181157;28;20280;-75
2022/08/18 10:39:44;;;;;;;11.00;10.15;;;24.90;99.90;;;26.00;66.92;97481.81;5180264;28;20206;-75
2022/08/18 10:42:26;;;;;;;11.57;10.68;;;24.90;99.90;;;25.94;65.72;97478.41;5173612;28;20622;-77
2022/08/18 10:45:12;;;;;;;11.82;10.93;;;25.00;99.90;;;25.96;65.62;97448.69;5181468;28;20218;-76
2022/08/18 10:48:06;;;;;;;11.68;10.77;;;25.00;99.90;;;25.99;66.56;97439.94;5183876;28;20236;-76
2022/08/18 10:50:53;;;;;;;12.27;11.27;;;24.90;99.90;;;25.92;66.34;97446.97;5175278;28;20253;-75
2022/08/18 10:53:34;;;;;;;12.27;11.38;;;24.70;99.90;;;25.88;66.23;97462.75;5184516;28;20273;-75
2022/08/18 10:56:30;;;;;;;11.27;10.55;;;24.80;99.90;;;26.09;65.78;97472.13;5172942;28;20258;-76
2022/08/18 10:59:16;;;;;;;11.20;10.35;;;25.10;99.90;;;26.28;65.77;97468.44;5181448;28;20582;-76
2022/08/18 11:02:14;;;;;;;10.40;9.65;;;25.40;99.90;;;26.64;64.37;97461.00;5183349;28;20205;-75
2022/08/18 11:04:51;;;;;;;11.65;10.75;;;25.70;99.90;;;26.72;62.93;97464.41;5179620;28;20725;-76
2022/08/18 11:07:32;;;;;;;11.68;10.80;;;25.80;99.90;;;26.66;63.35;97464.47;5184124;28;20197;-76
2022/08/18 11:10:19;;;;;;;11.88;11.07;;;25.70;99.90;;;26.54;62.85;97459.41;5183466;28;20331;-75
2022/08/18 11:13:23;;;;;;;11.25;10.40;;;25.60;99.90;;;26.31;64.13;97450.03;5178214;28;20288;-77
2022/08/18 11:16:06;;;;;;;12.23;11.32;;;25.30;99.90;;;26.45;63.74;97447.25;5180073;28;20754;-77